createdAt,value
2023-03-11T00:02:17.799Z,284.33149
2023-03-11T00:07:19.375Z,280.61202
2023-03-11T00:12:20.845Z,278.78261
2023-03-11T00:17:22.468Z,286.22222
2023-03-11T00:22:23.933Z,282.46154
2023-03-11T00:27:25.366Z,282.46154
2023-03-11T00:32:26.915Z,282.46154
2023-03-11T00:37:28.534Z,278.78261
2023-03-11T00:42:29.954Z,273.41176
2023-03-11T00:47:31.421Z,271.65957
2023-03-11T00:52:32.919Z,269.92593
2023-03-11T00:57:34.480Z,269.92593
2023-03-11T01:02:35.928Z,266.51309
2023-03-11T01:07:37.553Z,264.83333
2023-03-11T01:12:39.075Z,256.69036
2023-03-11T01:17:40.722Z,252
2023-03-11T01:22:42.201Z,252
2023-03-11T01:27:43.708Z,252
2023-03-11T01:32:45.274Z,256.69036
2023-03-11T01:37:46.768Z,253.54774
2023-03-11T01:42:48.300Z,253.54774
2023-03-11T01:47:49.840Z,256.69036
2023-03-11T01:52:51.309Z,255.11111
2023-03-11T01:57:52.902Z,255.11111
2023-03-11T02:02:54.700Z,256.69036
2023-03-11T02:07:56.191Z,259.89744
2023-03-11T02:12:57.688Z,266.51309
2023-03-11T02:17:59.140Z,276.97297
2023-03-11T02:23:00.605Z,275.1828
2023-03-11T02:28:02.226Z,280.61202
2023-03-11T02:33:03.896Z,282.46154
2023-03-11T02:38:05.362Z,282.46154
2023-03-11T02:43:06.949Z,284.33149
2023-03-11T02:48:08.464Z,284.33149
2023-03-11T02:53:09.920Z,282.46154
2023-03-11T02:58:11.370Z,284.33149
2023-03-11T03:03:12.986Z,284.33149
2023-03-11T03:08:14.569Z,284.33149
2023-03-11T03:13:16.052Z,284.33149
2023-03-11T03:18:17.516Z,284.33149
2023-03-11T03:23:19.138Z,288.13408
2023-03-11T03:28:20.896Z,286.22222
2023-03-11T03:33:22.376Z,286.22222
2023-03-11T03:38:23.889Z,290.06742
2023-03-11T03:43:25.394Z,288.13408
2023-03-11T03:48:27.020Z,286.22222
2023-03-11T03:53:28.556Z,290.06742
2023-03-11T03:58:30.046Z,290.06742
2023-03-11T04:03:31.746Z,286.22222
2023-03-11T04:08:33.322Z,288.13408
2023-03-11T04:13:34.777Z,288.13408
2023-03-11T04:18:36.361Z,282.46154
2023-03-11T04:23:38.045Z,286.22222
2023-03-11T04:28:39.468Z,284.33149
2023-03-11T04:33:41.231Z,282.46154
2023-03-11T04:38:42.729Z,278.78261
2023-03-11T04:43:44.180Z,276.97297
2023-03-11T04:48:45.674Z,276.97297
2023-03-11T04:53:47.177Z,276.97297
2023-03-11T04:58:48.678Z,271.65957
2023-03-11T05:03:50.291Z,276.97297
2023-03-11T05:08:51.791Z,275.1828
2023-03-11T05:13:53.379Z,276.97297
2023-03-11T05:18:54.834Z,276.97297
2023-03-11T05:23:56.350Z,292.0226
2023-03-11T05:28:57.778Z,296
2023-03-11T05:33:59.254Z,292.0226
2023-03-11T05:39:00.839Z,280.61202
2023-03-11T05:44:02.493Z,290.06742
2023-03-11T05:49:04.014Z,300.06936
2023-03-11T05:54:05.551Z,292.0226
2023-03-11T05:59:06.971Z,296
2023-03-11T06:04:08.785Z,296
2023-03-11T06:09:10.476Z,290.06742
2023-03-11T06:14:11.907Z,300.06936
2023-03-11T06:19:13.441Z,304.23392
2023-03-11T06:24:15.059Z,304.23392
2023-03-11T06:29:16.505Z,306.35294
2023-03-11T06:34:17.986Z,310.66667
2023-03-11T06:39:19.575Z,308.49704
2023-03-11T06:44:20.994Z,304.23392
2023-03-11T06:49:22.528Z,317.33333
2023-03-11T06:54:24.027Z,326.6087
2023-03-11T06:59:25.529Z,341.41935
2023-03-11T07:04:27.106Z,333.87342
2023-03-11T07:09:28.544Z,331.42138
2023-03-11T07:14:30.054Z,336.35669
2023-03-11T07:19:31.768Z,331.42138
2023-03-11T07:24:33.229Z,338.87179
2023-03-11T07:29:34.725Z,351.94702
2023-03-11T07:34:36.203Z,341.41935
2023-03-11T07:39:37.635Z,346.61438
2023-03-11T07:44:39.378Z,344
2023-03-11T07:49:40.796Z,344
2023-03-11T07:54:42.380Z,344
2023-03-11T07:59:43.959Z,324.24691
2023-03-11T08:04:45.513Z,365.91781
2023-03-11T08:09:47.077Z,333.87342
2023-03-11T08:14:48.518Z,349.26316
2023-03-11T08:19:50.015Z,368.82759
2023-03-11T08:24:51.570Z,360.21622
2023-03-11T08:29:53.003Z,374.76923
2023-03-11T08:34:54.612Z,365.91781
2023-03-11T08:39:56.151Z,351.94702
2023-03-11T08:44:57.693Z,368.82759
2023-03-11T08:49:59.221Z,363.04762
2023-03-11T08:55:00.707Z,387.16547
2023-03-11T09:00:02.214Z,400.2963
2023-03-11T09:05:03.740Z,380.87943
2023-03-11T09:10:05.171Z,357.42282
2023-03-11T09:15:06.659Z,357.42282
2023-03-11T09:20:08.220Z,380.87943
2023-03-11T09:25:09.836Z,351.94702
2023-03-11T09:30:11.354Z,384
2023-03-11T09:35:12.842Z,393.63504
2023-03-11T09:40:14.356Z,403.70149
2023-03-11T09:45:15.898Z,393.63504
2023-03-11T09:50:17.340Z,393.63504
2023-03-11T09:55:18.898Z,387.16547
2023-03-11T10:00:20.412Z,421.51938
2023-03-11T10:05:22.048Z,400.2963
2023-03-11T10:10:23.587Z,387.16547
2023-03-11T10:15:25.110Z,0
2023-03-11T10:20:26.765Z,0
2023-03-11T10:25:28.234Z,0
2023-03-11T10:30:30.416Z,0
2023-03-11T10:35:31.948Z,0
2023-03-11T10:40:33.597Z,0
2023-03-11T10:45:35.130Z,0
2023-03-11T10:50:36.922Z,0
2023-03-11T10:55:38.438Z,407.15789
2023-03-11T11:00:39.940Z,0
2023-03-11T11:05:41.436Z,0
2023-03-11T11:10:42.942Z,0
2023-03-11T11:15:44.489Z,0
2023-03-11T11:20:46.035Z,0
2023-03-11T11:25:47.669Z,0
2023-03-11T11:30:49.320Z,0
2023-03-11T11:35:50.978Z,0
2023-03-11T11:40:52.514Z,0
2023-03-11T11:45:53.989Z,0
2023-03-11T11:50:55.499Z,0
2023-03-11T11:55:56.937Z,0
2023-03-11T12:00:58.425Z,0
2023-03-11T12:05:59.959Z,0
2023-03-11T12:11:01.535Z,0
2023-03-11T12:16:03.062Z,0
2023-03-11T12:21:04.539Z,0
2023-03-11T12:26:06.086Z,0
2023-03-11T12:31:07.686Z,0
2023-03-11T12:36:09.277Z,0
2023-03-11T12:41:10.843Z,0
2023-03-11T12:46:12.413Z,0
2023-03-11T12:51:14.097Z,0
2023-03-11T12:56:15.622Z,0
2023-03-11T13:01:17.113Z,0
2023-03-11T13:06:18.675Z,0
2023-03-11T13:11:20.217Z,0
2023-03-11T13:16:21.834Z,0
2023-03-11T13:21:23.379Z,0
2023-03-11T13:26:24.848Z,0
2023-03-11T13:31:26.391Z,0
2023-03-11T13:36:27.879Z,0
2023-03-11T13:41:29.337Z,0
2023-03-11T13:46:30.971Z,0
2023-03-11T13:51:32.673Z,0
2023-03-11T13:56:34.165Z,0
2023-03-11T14:01:35.620Z,0
2023-03-11T14:06:37.199Z,0
2023-03-11T14:11:38.695Z,0
2023-03-11T14:16:40.259Z,0
2023-03-11T14:21:41.715Z,0
2023-03-11T14:26:43.233Z,0
2023-03-11T14:31:44.794Z,0
2023-03-11T14:36:46.833Z,0
2023-03-11T14:41:48.376Z,0
2023-03-11T14:46:49.956Z,0
2023-03-11T14:51:51.499Z,0
2023-03-11T14:56:52.979Z,0
2023-03-11T15:01:54.788Z,0
2023-03-11T15:06:56.250Z,0
2023-03-11T15:11:57.763Z,0
2023-03-11T15:16:59.362Z,0
2023-03-11T15:22:00.996Z,498.95495
2023-03-11T15:27:02.616Z,0
2023-03-11T15:32:04.117Z,0
2023-03-11T15:37:05.555Z,0
2023-03-11T15:42:07.150Z,0
2023-03-11T15:47:08.683Z,0
2023-03-11T15:52:10.183Z,0
2023-03-11T15:57:12.869Z,0
2023-03-11T16:02:14.577Z,0
2023-03-11T16:07:17.097Z,429.03937
2023-03-11T16:12:18.861Z,393.63504
2023-03-11T16:17:20.549Z,360.21622
2023-03-11T16:22:22.040Z,349.26316
2023-03-11T16:27:23.505Z,326.6087
2023-03-11T16:32:25.000Z,308.49704
2023-03-11T16:37:26.480Z,324.24691
2023-03-11T16:42:27.917Z,317.33333
2023-03-11T16:47:29.491Z,321.91411
2023-03-11T16:52:31.236Z,300.06936
2023-03-11T16:57:32.829Z,280.61202
2023-03-11T17:02:34.300Z,284.33149
2023-03-11T17:07:51.492Z,275.1828
2023-03-11T17:12:52.997Z,286.22222
2023-03-11T17:17:54.472Z,280.61202
2023-03-11T17:22:55.903Z,282.46154
2023-03-11T17:27:57.516Z,304.23392
2023-03-11T17:32:59.069Z,338.87179
2023-03-11T17:38:00.643Z,317.33333
2023-03-11T17:43:02.340Z,292.0226
2023-03-11T17:48:03.930Z,282.46154
2023-03-11T17:53:05.363Z,280.61202
2023-03-11T17:58:06.882Z,282.46154
2023-03-11T18:03:08.390Z,290.06742
2023-03-11T18:08:09.888Z,271.65957
2023-03-11T18:13:11.518Z,284.33149
2023-03-11T18:18:13.195Z,271.65957
2023-03-11T18:23:14.673Z,259.89744
2023-03-11T18:28:16.208Z,256.69036
2023-03-11T18:33:17.726Z,263.17098
2023-03-11T18:38:19.410Z,269.92593
2023-03-11T18:43:20.891Z,252
2023-03-11T18:48:22.397Z,237.33333
2023-03-11T18:53:24.055Z,231.85047
2023-03-11T18:58:25.609Z,237.33333
2023-03-11T19:03:27.062Z,244.4878
2023-03-11T19:08:28.560Z,245.96078
2023-03-11T19:13:45.641Z,244.4878
2023-03-11T19:18:47.992Z,233.20188
2023-03-11T19:23:49.446Z,241.58454
2023-03-11T19:28:50.973Z,244.4878
2023-03-11T19:33:52.466Z,266.51309
2023-03-11T19:38:54.026Z,349.26316
2023-03-11T19:43:55.467Z,387.16547
2023-03-11T19:48:57.002Z,346.61438
2023-03-11T19:53:58.504Z,407.15789
2023-03-11T19:59:00.186Z,393.63504
2023-03-11T20:04:01.656Z,440.77419
2023-03-11T20:09:03.260Z,374.76923
2023-03-11T20:14:04.747Z,429.03937
2023-03-11T20:19:06.374Z,0
2023-03-11T20:24:07.879Z,0
2023-03-11T20:29:09.446Z,0
2023-03-11T20:34:11.092Z,0
2023-03-11T20:39:12.670Z,0
2023-03-11T20:44:14.311Z,0
2023-03-11T20:49:15.880Z,436.8
2023-03-11T20:54:17.365Z,410.66667
2023-03-11T20:59:19.025Z,0
2023-03-11T21:04:20.568Z,0
2023-03-11T21:09:22.194Z,0
2023-03-11T21:14:23.808Z,0
2023-03-11T21:19:25.443Z,417.84615
2023-03-11T21:24:26.988Z,0
2023-03-11T21:29:28.644Z,0
2023-03-11T21:34:30.227Z,0
2023-03-11T21:39:31.749Z,0
2023-03-11T21:44:33.439Z,400.2963
2023-03-11T21:49:34.986Z,380.87943
2023-03-11T21:54:36.615Z,403.70149
2023-03-11T21:59:38.288Z,390.37681
2023-03-11T22:04:39.974Z,407.15789
2023-03-11T22:09:41.614Z,0
2023-03-11T22:14:43.411Z,410.66667
2023-03-11T22:19:44.995Z,407.15789
2023-03-11T22:24:46.512Z,417.84615
2023-03-11T22:29:48.117Z,0
2023-03-11T22:34:49.616Z,0
2023-03-11T22:39:51.151Z,410.66667
2023-03-11T22:44:52.607Z,0
2023-03-11T22:49:54.088Z,410.66667
2023-03-11T22:54:55.617Z,414.22901
2023-03-11T22:59:57.304Z,414.22901
2023-03-11T23:04:58.760Z,417.84615
2023-03-11T23:10:00.291Z,410.66667
2023-03-11T23:15:01.834Z,410.66667
2023-03-11T23:20:03.441Z,403.70149
2023-03-11T23:25:04.938Z,414.22901
2023-03-11T23:30:06.621Z,407.15789
2023-03-11T23:35:08.163Z,403.70149
2023-03-11T23:40:09.658Z,0
2023-03-11T23:45:11.187Z,396.94118
2023-03-11T23:50:12.699Z,387.16547
2023-03-11T23:55:14.350Z,407.15789
